createdAt,value
2023-01-27T00:01:49.547Z,2.00
2023-01-27T00:04:17.784Z,2.00
2023-01-27T00:06:45.993Z,2.00
2023-01-27T00:09:17.118Z,2.10
2023-01-27T00:12:06.177Z,2.10
2023-01-27T00:14:35.693Z,2.10
2023-01-27T00:17:03.928Z,2.20
2023-01-27T00:19:32.680Z,2.10
2023-01-27T00:22:19.351Z,2.10
2023-01-27T00:24:50.577Z,2.10
2023-01-27T00:27:19.003Z,2.10
2023-01-27T00:29:48.666Z,2.20
2023-01-27T00:32:36.717Z,2.10
2023-01-27T00:35:05.852Z,2.10
2023-01-27T00:37:34.202Z,2.10
2023-01-27T00:40:02.380Z,2.10
2023-01-27T00:42:30.591Z,2.10
2023-01-27T00:45:17.820Z,2.00
2023-01-27T00:47:46.298Z,2.00
2023-01-27T00:50:14.921Z,2.00
2023-01-27T00:52:43.289Z,2.00
2023-01-27T00:55:12.192Z,2.00
2023-01-27T00:57:42.897Z,2.00
2023-01-27T01:00:16.951Z,2.10
2023-01-27T01:02:45.391Z,2.00
2023-01-27T01:05:13.609Z,2.00
2023-01-27T01:07:42.952Z,2.00
2023-01-27T01:39:39.472Z,2.00
2023-01-27T01:42:07.710Z,2.00
2023-01-27T01:44:37.140Z,2.10
2023-01-27T01:47:05.540Z,2.20
2023-01-27T01:49:40.465Z,2.10
2023-01-27T01:52:12.197Z,2.10
2023-01-27T01:54:46.311Z,2.10
2023-01-27T01:57:18.157Z,2.00
2023-01-27T01:59:50.001Z,2.10
2023-01-27T02:02:24.385Z,2.10
2023-01-27T02:04:58.819Z,2.10
2023-01-27T02:07:32.734Z,2.10
2023-01-27T02:10:02.996Z,2.10
2023-01-27T02:12:31.349Z,2.10
2023-01-27T02:15:00.593Z,2.10
2023-01-27T02:17:29.809Z,2.10
2023-01-27T02:20:07.564Z,2.10
2023-01-27T02:22:45.088Z,2.20
2023-01-27T02:25:20.955Z,2.20
2023-01-27T02:27:50.553Z,2.20
2023-01-27T02:30:18.919Z,2.20
2023-01-27T02:32:47.270Z,2.20
2023-01-27T02:35:24.886Z,2.20
2023-01-27T02:37:53.828Z,2.20
2023-01-27T02:40:25.936Z,2.10
2023-01-27T02:42:57.764Z,2.00
2023-01-27T02:45:25.996Z,2.00
2023-01-27T02:47:56.812Z,2.10
2023-01-27T02:50:25.030Z,2.10
2023-01-27T02:52:53.199Z,2.10
2023-01-27T02:55:22.990Z,2.00
2023-01-27T02:57:52.771Z,2.00
2023-01-27T03:00:40.595Z,1.90
2023-01-27T03:03:08.858Z,2.00
2023-01-27T03:05:37.078Z,2.00
2023-01-27T03:08:06.265Z,2.10
2023-01-27T03:10:34.576Z,2.10
2023-01-27T03:13:02.738Z,2.10
2023-01-27T03:15:48.551Z,2.10
2023-01-27T03:18:18.407Z,2.00
2023-01-27T03:20:48.014Z,2.00
2023-01-27T03:23:17.379Z,2.00
2023-01-27T03:25:50.135Z,2.00
2023-01-27T03:28:18.381Z,2.10
2023-01-27T03:31:08.745Z,2.00
2023-01-27T03:33:53.507Z,2.00
2023-01-27T03:36:45.197Z,2.00
2023-01-27T03:39:30.957Z,2.10
2023-01-27T03:42:16.532Z,2.00
2023-01-27T03:45:02.180Z,2.10
2023-01-27T03:47:30.391Z,2.10
2023-01-27T03:49:59.956Z,2.10
2023-01-27T03:52:28.177Z,2.10
2023-01-27T03:54:56.327Z,2.00
2023-01-27T03:57:24.491Z,2.10
2023-01-27T03:59:52.711Z,2.10
2023-01-27T04:02:39.030Z,2.10
2023-01-27T04:05:27.503Z,2.10
2023-01-27T04:07:55.645Z,2.00
2023-01-27T04:10:23.811Z,2.00
2023-01-27T04:12:50.973Z,2.10
2023-01-27T04:15:21.705Z,2.00
2023-01-27T04:17:51.946Z,2.10
2023-01-27T04:20:24.054Z,2.10
2023-01-27T04:22:52.306Z,2.00
2023-01-27T04:25:20.637Z,2.10
2023-01-27T04:27:49.141Z,2.00
2023-01-27T04:30:18.096Z,2.00
2023-01-27T04:32:46.234Z,2.00
2023-01-27T04:35:17.179Z,2.00
2023-01-27T04:37:46.691Z,2.00
2023-01-27T04:40:15.259Z,2.00
2023-01-27T04:42:43.583Z,1.90
2023-01-27T04:45:16.400Z,2.00
2023-01-27T04:47:44.927Z,1.90
2023-01-27T04:50:13.472Z,2.00
2023-01-27T04:52:41.685Z,2.00
2023-01-27T04:55:12.244Z,2.00
2023-01-27T04:57:40.753Z,2.10
2023-01-27T05:00:11.596Z,2.10
2023-01-27T05:02:39.854Z,2.10
2023-01-27T05:05:09.063Z,2.10
2023-01-27T05:07:37.238Z,2.00
2023-01-27T05:10:08.944Z,2.00
2023-01-27T05:12:40.951Z,2.00
2023-01-27T05:15:10.420Z,2.10
2023-01-27T05:17:38.686Z,2.10
2023-01-27T05:20:07.659Z,2.00
2023-01-27T05:22:38.227Z,2.00
2023-01-27T05:25:07.306Z,2.10
2023-01-27T05:27:35.672Z,2.00
2023-01-27T05:30:06.210Z,2.00
2023-01-27T05:32:34.402Z,2.10
2023-01-27T05:35:02.798Z,2.00
2023-01-27T05:37:31.011Z,2.00
2023-01-27T05:39:59.499Z,2.00
2023-01-27T05:42:27.663Z,2.10
2023-01-27T05:44:55.940Z,2.00
2023-01-27T05:47:25.493Z,2.10
2023-01-27T05:49:53.652Z,2.10
2023-01-27T05:52:21.824Z,2.00
2023-01-27T05:54:49.980Z,2.00
2023-01-27T05:57:18.214Z,2.00
2023-01-27T05:59:46.533Z,2.00
2023-01-27T06:02:15.740Z,2.00
2023-01-27T06:04:45.568Z,2.10
2023-01-27T06:07:13.822Z,2.00
2023-01-27T06:09:42.041Z,2.00
2023-01-27T06:12:10.301Z,2.00
2023-01-27T06:14:40.709Z,2.00
2023-01-27T06:17:08.888Z,1.90
2023-01-27T06:19:37.061Z,1.90
2023-01-27T06:22:06.601Z,1.90
2023-01-27T06:24:34.794Z,1.90
2023-01-27T06:27:03.074Z,1.90
2023-01-27T06:29:31.244Z,2.00
2023-01-27T06:31:59.584Z,2.00
2023-01-27T06:34:27.770Z,2.00
2023-01-27T06:36:55.951Z,1.90
2023-01-27T06:39:27.992Z,2.00
2023-01-27T06:41:56.136Z,1.90
2023-01-27T06:44:24.283Z,1.90
2023-01-27T06:46:54.752Z,2.00
2023-01-27T06:49:22.941Z,2.00
2023-01-27T06:51:51.130Z,2.10
2023-01-27T06:54:19.479Z,2.10
2023-01-27T06:56:48.983Z,2.10
2023-01-27T06:59:17.211Z,2.00
2023-01-27T07:01:45.431Z,2.00
2023-01-27T07:04:13.706Z,2.10
2023-01-27T07:06:42.169Z,2.20
2023-01-27T07:09:11.265Z,2.30
2023-01-27T07:11:39.420Z,2.30
2023-01-27T07:14:10.539Z,2.30
2023-01-27T07:16:38.920Z,2.30
2023-01-27T07:19:07.098Z,2.40
2023-01-27T07:21:35.354Z,2.30
2023-01-27T07:24:03.564Z,2.40
2023-01-27T07:26:33.612Z,2.40
2023-01-27T07:29:01.911Z,2.30
2023-01-27T07:31:31.625Z,2.30
2023-01-27T07:33:59.788Z,2.40
2023-01-27T07:36:27.998Z,2.50
2023-01-27T07:38:56.196Z,2.60
2023-01-27T07:41:25.738Z,2.60
2023-01-27T07:43:53.951Z,2.70
2023-01-27T07:46:22.159Z,2.70
2023-01-27T07:48:51.840Z,2.60
2023-01-27T07:51:20.129Z,2.60
2023-01-27T07:53:48.316Z,2.60
2023-01-27T07:56:19.150Z,2.70
2023-01-27T07:58:47.312Z,2.80
2023-01-27T08:01:15.620Z,3.00
2023-01-27T08:03:43.835Z,3.10
2023-01-27T08:06:14.290Z,3.10
2023-01-27T08:08:45.532Z,3.10
2023-01-27T08:11:15.583Z,3.20
2023-01-27T08:13:43.942Z,3.20
2023-01-27T08:16:14.403Z,3.40
2023-01-27T08:18:43.114Z,3.40
2023-01-27T08:21:13.912Z,3.50
2023-01-27T08:23:42.071Z,3.50
2023-01-27T08:26:10.551Z,3.60
2023-01-27T08:28:39.846Z,3.70
2023-01-27T08:31:09.397Z,3.70
2023-01-27T08:33:38.152Z,3.70
2023-01-27T08:36:09.229Z,3.70
2023-01-27T08:38:38.950Z,3.90
2023-01-27T08:41:07.857Z,4.00
2023-01-27T08:43:36.047Z,3.90
2023-01-27T08:46:04.666Z,3.90
2023-01-27T08:48:33.518Z,4.00
2023-01-27T08:51:02.636Z,4.10
2023-01-27T08:53:34.219Z,4.20
2023-01-27T08:56:07.054Z,4.30
2023-01-27T08:58:35.655Z,4.40
2023-01-27T09:01:05.205Z,4.40
2023-01-27T09:03:33.525Z,4.30
2023-01-27T09:06:02.104Z,4.30
2023-01-27T09:08:30.565Z,4.40
2023-01-27T09:10:59.016Z,4.30
2023-01-27T09:13:28.917Z,4.30
2023-01-27T09:15:57.336Z,4.40
2023-01-27T09:18:25.685Z,4.50
2023-01-27T09:20:53.841Z,4.70
2023-01-27T09:23:22.185Z,4.90
2023-01-27T09:25:51.359Z,5.10
2023-01-27T09:28:21.830Z,5.30
2023-01-27T09:30:52.671Z,5.50
2023-01-27T09:33:20.978Z,5.70
2023-01-27T09:35:54.763Z,5.70
2023-01-27T09:38:25.078Z,5.70
2023-01-27T09:41:18.210Z,5.70
2023-01-27T09:44:12.370Z,5.70
2023-01-27T09:47:03.510Z,5.70
2023-01-27T09:49:58.732Z,5.80
2023-01-27T09:52:48.110Z,5.90
2023-01-27T09:55:28.823Z,6.00
2023-01-27T09:58:08.055Z,6.20
2023-01-27T10:00:47.509Z,6.40
2023-01-27T10:03:50.868Z,6.40
2023-01-27T10:06:52.851Z,6.40
2023-01-27T10:10:03.749Z,6.30
2023-01-27T10:12:59.966Z,6.20
2023-01-27T10:15:47.044Z,6.20
2023-01-27T10:18:29.770Z,6.20
2023-01-27T10:21:05.703Z,6.20
2023-01-27T10:23:46.760Z,6.10
2023-01-27T10:26:24.291Z,6.00
2023-01-27T10:28:58.106Z,5.80
2023-01-27T10:31:30.205Z,5.60
2023-01-27T10:34:03.742Z,5.50
2023-01-27T10:36:43.336Z,5.50
2023-01-27T10:39:19.360Z,5.50
2023-01-27T10:41:57.543Z,5.50
2023-01-27T10:44:43.716Z,5.30
2023-01-27T10:47:20.357Z,5.10
2023-01-27T10:49:53.468Z,5.00
2023-01-27T10:52:28.273Z,4.90
2023-01-27T10:55:02.794Z,4.90
2023-01-27T10:57:36.143Z,4.80
2023-01-27T11:00:46.190Z,4.70
2023-01-27T11:03:04.161Z,4.70
2023-01-27T11:05:36.540Z,4.60
2023-01-27T11:08:14.679Z,4.60
2023-01-27T11:11:06.297Z,4.60
2023-01-27T11:13:37.147Z,4.60
2023-01-27T11:16:07.319Z,4.50
2023-01-27T11:18:38.997Z,4.50
2023-01-27T11:21:11.573Z,4.50
2023-01-27T11:23:45.903Z,4.40
2023-01-27T11:26:29.044Z,4.40
2023-01-27T11:29:11.207Z,4.40
2023-01-27T11:31:47.622Z,4.40
2023-01-27T11:34:27.282Z,4.40
2023-01-27T11:36:55.736Z,4.40
2023-01-27T11:39:25.885Z,4.40
2023-01-27T11:41:56.288Z,4.40
2023-01-27T11:44:29.173Z,4.40
2023-01-27T11:46:57.715Z,4.50
2023-01-27T11:49:31.385Z,4.50
2023-01-27T11:52:07.690Z,4.60
2023-01-27T11:54:42.123Z,4.60
2023-01-27T11:57:20.358Z,4.60
2023-01-27T11:59:51.550Z,4.70
2023-01-27T12:02:28.645Z,4.70
2023-01-27T12:05:03.918Z,4.70
2023-01-27T12:07:45.588Z,4.70
2023-01-27T12:10:28.126Z,4.70
2023-01-27T12:12:57.348Z,4.70
2023-01-27T12:15:28.135Z,4.70
2023-01-27T12:18:00.098Z,4.60
2023-01-27T12:20:35.117Z,4.60
2023-01-27T12:23:08.111Z,4.60
2023-01-27T12:25:48.384Z,4.60
2023-01-27T12:28:27.227Z,4.70
2023-01-27T12:30:59.257Z,4.60
2023-01-27T12:33:32.950Z,4.70
2023-01-27T12:36:02.638Z,4.70
2023-01-27T12:38:35.392Z,4.70
2023-01-27T12:41:07.392Z,4.60
2023-01-27T12:43:51.827Z,4.60
2023-01-27T12:46:23.449Z,4.60
2023-01-27T12:48:53.336Z,4.50
2023-01-27T12:51:23.826Z,4.50
2023-01-27T12:54:12.881Z,4.50
2023-01-27T12:56:43.112Z,4.50
2023-01-27T12:59:15.642Z,4.60
2023-01-27T13:01:47.158Z,4.60
2023-01-27T13:04:18.564Z,4.60
2023-01-27T13:06:50.350Z,4.60
2023-01-27T13:09:27.059Z,4.50
2023-01-27T13:11:59.435Z,4.50
2023-01-27T13:14:31.304Z,4.40
2023-01-27T13:17:00.036Z,4.30
2023-01-27T13:19:38.680Z,4.30
2023-01-27T13:22:08.197Z,4.30
2023-01-27T13:24:43.323Z,4.20
2023-01-27T13:27:16.543Z,4.20
2023-01-27T13:29:59.246Z,4.30
2023-01-27T13:32:30.702Z,4.30
2023-01-27T13:35:11.706Z,4.30
2023-01-27T13:37:44.869Z,4.20
2023-01-27T13:40:19.199Z,4.20
2023-01-27T13:42:53.389Z,4.20
2023-01-27T13:45:24.427Z,4.10
2023-01-27T13:47:56.255Z,4.10
2023-01-27T13:50:29.611Z,4.00
2023-01-27T13:53:00.413Z,4.00
2023-01-27T13:55:46.716Z,4.00
2023-01-27T13:58:23.790Z,4.00
2023-01-27T14:01:00.463Z,4.00
2023-01-27T14:04:07.311Z,4.00
2023-01-27T14:06:44.619Z,4.00
2023-01-27T14:09:24.334Z,4.00
2023-01-27T14:12:10.691Z,4.00
2023-01-27T14:14:58.168Z,4.10
2023-01-27T14:17:36.469Z,3.90
2023-01-27T14:20:32.423Z,3.90
2023-01-27T14:23:13.315Z,3.90
2023-01-27T14:25:55.522Z,3.80
2023-01-27T14:28:32.198Z,3.90
2023-01-27T14:31:13.963Z,3.90
2023-01-27T14:34:00.299Z,3.80
2023-01-27T14:36:33.894Z,3.80
2023-01-27T14:39:09.673Z,3.70
2023-01-27T14:41:45.006Z,3.70
2023-01-27T14:44:26.852Z,3.60
2023-01-27T14:47:09.785Z,3.70
2023-01-27T14:49:54.431Z,3.60
2023-01-27T14:52:41.930Z,3.60
2023-01-27T14:55:28.374Z,3.60
2023-01-27T14:58:07.705Z,3.60
2023-01-27T15:00:46.891Z,3.50
2023-01-27T15:03:53.235Z,3.40
2023-01-27T15:06:29.761Z,3.40
2023-01-27T15:09:07.224Z,3.40
2023-01-27T15:11:50.964Z,3.40
2023-01-27T15:14:57.770Z,3.40
2023-01-27T15:17:38.078Z,3.40
2023-01-27T15:20:31.567Z,3.40
2023-01-27T15:23:30.054Z,3.30
2023-01-27T15:26:01.034Z,3.20
2023-01-27T15:28:32.562Z,3.20
2023-01-27T15:31:11.010Z,3.20
2023-01-27T15:33:55.166Z,3.20
2023-01-27T15:36:35.637Z,3.20
2023-01-27T15:39:21.838Z,3.30
2023-01-27T15:41:54.201Z,3.30
2023-01-27T15:44:30.732Z,3.30
2023-01-27T15:47:09.480Z,3.20
2023-01-27T15:49:42.301Z,3.20
2023-01-27T15:52:18.649Z,3.20
2023-01-27T15:54:52.481Z,3.10
2023-01-27T15:57:29.785Z,3.10
2023-01-27T16:00:05.653Z,3.10
2023-01-27T16:02:45.281Z,3.10
2023-01-27T16:05:22.008Z,3.00
2023-01-27T16:07:55.779Z,3.00
2023-01-27T16:10:28.732Z,3.00
2023-01-27T16:13:21.313Z,3.00
2023-01-27T16:16:15.814Z,3.00
2023-01-27T16:18:48.479Z,3.00
2023-01-27T16:21:36.692Z,3.00
2023-01-27T16:24:14.516Z,3.00
2023-01-27T16:26:49.791Z,2.90
2023-01-27T16:29:28.196Z,2.90
2023-01-27T16:32:02.081Z,2.90
2023-01-27T16:34:36.660Z,2.90
2023-01-27T16:37:23.786Z,2.90
2023-01-27T16:39:57.811Z,2.90
2023-01-27T16:42:33.624Z,2.90
2023-01-27T16:45:06.452Z,2.80
2023-01-27T16:47:42.670Z,2.80
2023-01-27T16:50:34.049Z,2.80
2023-01-27T16:53:03.733Z,2.80
2023-01-27T16:55:32.612Z,2.80
2023-01-27T16:58:03.753Z,2.80
2023-01-27T17:00:35.915Z,2.80
2023-01-27T17:03:11.437Z,2.80
2023-01-27T17:05:41.829Z,2.80
2023-01-27T17:08:19.401Z,2.80
2023-01-27T17:10:52.231Z,2.90
2023-01-27T17:13:29.976Z,2.80
2023-01-27T17:16:00.396Z,2.80
2023-01-27T17:18:31.655Z,2.80
2023-01-27T17:21:04.187Z,2.80
2023-01-27T17:23:36.451Z,2.80
2023-01-27T17:26:07.894Z,2.80
2023-01-27T17:28:37.841Z,2.80
2023-01-27T17:31:08.534Z,2.80
2023-01-27T17:33:38.294Z,2.80
2023-01-27T17:36:11.868Z,2.80
2023-01-27T17:38:47.096Z,2.80
2023-01-27T17:41:30.318Z,2.80
2023-01-27T17:44:01.601Z,2.80
2023-01-27T17:46:32.990Z,2.80
2023-01-27T17:49:04.288Z,2.80
2023-01-27T17:51:37.194Z,2.80
2023-01-27T17:54:17.241Z,2.80
2023-01-27T17:56:45.580Z,2.90
2023-01-27T17:59:20.264Z,2.80
2023-01-27T18:01:51.545Z,2.70
2023-01-27T18:04:23.769Z,2.70
2023-01-27T18:06:52.782Z,2.80
2023-01-27T18:09:25.231Z,2.70
2023-01-27T18:11:56.088Z,2.70
2023-01-27T18:14:30.493Z,2.70
2023-01-27T18:17:00.385Z,2.70
2023-01-27T18:19:29.907Z,2.60
2023-01-27T18:22:16.404Z,2.60
2023-01-27T18:24:53.070Z,2.60
2023-01-27T18:27:24.418Z,2.60
2023-01-27T18:29:56.635Z,2.60
2023-01-27T18:32:25.635Z,2.60
2023-01-27T18:34:56.412Z,2.60
2023-01-27T18:37:30.670Z,2.60
2023-01-27T18:40:00.209Z,2.60
2023-01-27T18:42:31.771Z,2.70
2023-01-27T18:45:01.482Z,2.60
2023-01-27T18:47:33.077Z,2.60
2023-01-27T18:50:07.616Z,2.60
2023-01-27T18:52:35.859Z,2.60
2023-01-27T18:55:17.501Z,2.60
2023-01-27T18:57:46.980Z,2.60
2023-01-27T19:00:19.535Z,2.60
2023-01-27T19:02:50.774Z,2.60
2023-01-27T19:05:21.919Z,2.50
2023-01-27T19:07:50.665Z,2.60
2023-01-27T19:10:24.835Z,2.60
2023-01-27T19:12:58.344Z,2.50
2023-01-27T19:15:33.746Z,2.50
2023-01-27T19:18:05.623Z,2.50
2023-01-27T19:20:34.449Z,2.60
2023-01-27T19:23:05.786Z,2.50
2023-01-27T19:25:33.995Z,2.50
2023-01-27T19:28:05.516Z,2.40
2023-01-27T19:30:37.210Z,2.40
2023-01-27T19:33:13.404Z,2.50
2023-01-27T19:35:43.280Z,2.50
2023-01-27T19:38:12.336Z,2.50
2023-01-27T19:40:40.802Z,2.50
2023-01-27T19:43:13.387Z,2.40
2023-01-27T19:45:44.196Z,2.40
2023-01-27T19:48:15.759Z,2.40
2023-01-27T19:50:44.063Z,2.30
2023-01-27T19:53:13.436Z,2.30
2023-01-27T19:55:42.260Z,2.40
2023-01-27T19:58:21.179Z,2.40
2023-01-27T20:00:50.819Z,2.40
2023-01-27T20:03:19.435Z,2.30
2023-01-27T20:05:47.757Z,2.30
2023-01-27T20:08:18.885Z,2.30
2023-01-27T20:10:47.907Z,2.30
2023-01-27T20:13:18.117Z,2.30
2023-01-27T20:15:47.396Z,2.30
2023-01-27T20:18:19.026Z,2.30
2023-01-27T20:20:47.476Z,2.20
2023-01-27T20:23:16.461Z,2.30
2023-01-27T20:25:44.687Z,2.30
2023-01-27T20:28:14.175Z,2.30
2023-01-27T20:30:43.133Z,2.30
2023-01-27T20:33:13.300Z,2.20
2023-01-27T20:35:43.385Z,2.20
2023-01-27T20:38:11.713Z,2.10
2023-01-27T20:40:39.935Z,2.20
2023-01-27T20:43:08.200Z,2.20
2023-01-27T20:45:38.094Z,2.20
2023-01-27T20:48:06.452Z,2.20
2023-01-27T20:50:34.647Z,2.20
2023-01-27T20:53:04.735Z,2.20
2023-01-27T20:55:33.212Z,2.20
2023-01-27T20:58:02.107Z,2.20
2023-01-27T21:00:30.280Z,2.20
2023-01-27T21:02:58.459Z,2.30
2023-01-27T21:05:26.656Z,2.20
2023-01-27T21:07:54.898Z,2.30
2023-01-27T21:10:24.917Z,2.20
2023-01-27T21:12:53.084Z,2.20
2023-01-27T21:15:21.268Z,2.20
2023-01-27T21:17:51.253Z,2.20
2023-01-27T21:20:19.482Z,2.20
2023-01-27T21:22:47.851Z,2.20
2023-01-27T21:25:16.536Z,2.20
2023-01-27T21:27:49.128Z,2.20
2023-01-27T21:30:25.636Z,2.20
2023-01-27T21:32:53.893Z,2.20
2023-01-27T21:35:22.112Z,2.30
2023-01-27T21:37:50.301Z,2.20
2023-01-27T21:40:21.592Z,2.20
2023-01-27T21:43:08.731Z,2.10
2023-01-27T21:45:36.982Z,2.20
2023-01-27T21:48:05.678Z,2.10
2023-01-27T21:50:36.975Z,2.20
2023-01-27T21:53:11.492Z,2.20
2023-01-27T21:55:43.163Z,2.20
2023-01-27T21:58:15.235Z,2.20
2023-01-27T22:00:43.623Z,2.20
2023-01-27T22:03:12.740Z,2.20
2023-01-27T22:05:40.942Z,2.10
2023-01-27T22:08:15.168Z,2.10
2023-01-27T22:10:45.811Z,2.10
2023-01-27T22:13:17.451Z,2.20
2023-01-27T22:15:50.826Z,2.20
2023-01-27T22:18:19.034Z,2.20
2023-01-27T22:20:56.184Z,2.10
2023-01-27T22:23:29.947Z,2.10
2023-01-27T22:25:58.269Z,2.10
2023-01-27T22:28:28.522Z,2.20
2023-01-27T22:31:03.202Z,2.20
2023-01-27T22:33:32.164Z,2.10
2023-01-27T22:36:01.227Z,2.10
2023-01-27T22:38:29.480Z,2.20
2023-01-27T22:40:58.317Z,2.20
2023-01-27T22:43:28.031Z,2.20
2023-01-27T22:45:56.231Z,2.20
2023-01-27T22:48:24.614Z,2.20
2023-01-27T22:50:52.859Z,2.20
2023-01-27T22:53:21.128Z,2.20
2023-01-27T22:55:56.934Z,2.30
2023-01-27T22:58:25.407Z,2.20
2023-01-27T23:00:55.178Z,2.20
2023-01-27T23:03:24.214Z,2.20
2023-01-27T23:05:52.434Z,2.20
2023-01-27T23:08:21.172Z,2.20
2023-01-27T23:10:49.909Z,2.20
2023-01-27T23:13:18.450Z,2.20
2023-01-27T23:15:47.034Z,2.20
2023-01-27T23:18:17.212Z,2.20
2023-01-27T23:20:45.824Z,2.20
2023-01-27T23:23:14.947Z,2.20
2023-01-27T23:25:45.171Z,2.10
2023-01-27T23:28:14.240Z,2.20
2023-01-27T23:30:44.162Z,2.20
2023-01-27T23:33:13.132Z,2.30
2023-01-27T23:35:42.846Z,2.20
2023-01-27T23:38:26.306Z,2.30
2023-01-27T23:41:02.321Z,2.20
2023-01-27T23:43:31.156Z,2.20
2023-01-27T23:46:02.452Z,2.20
2023-01-27T23:48:30.858Z,2.20
2023-01-27T23:51:00.469Z,2.20
2023-01-27T23:53:29.468Z,2.20
2023-01-27T23:55:58.895Z,2.20
2023-01-27T23:58:28.833Z,2.20
